Halcottsville, New York
Current Conditions -  °F | °C
As of 10:15 PM on Thursday 18 Dec 2014 (Local Time) from KMSV Reporting Station
Overcast Overcast  
Wind Chill: 21°   Ceiling: 1900
Heat Index: 30°   Visibility: 10mi
Dew Point: 25°   Wind: 10mph
Humidity: 80%   Direction: 300°WNW
Pressure: 29.94"   Gusts: 17mph
Location:  42.21°N, 74.6°W
Report Text: KMSV 190315Z AUTO 30009G15KT 10SM OVC019 M01/M04 A2994 RMK AO1
Loading
Personal Weather Stations






























Interactive Weather Map New forecast layout! Learn more

10-Day Weather Forecast

Advertisements
Track Severe Weather on mobile